Time;durP1;ratioP1;P1;durP2;ratioP2;P2;SDS_P1;SDS_P2;PMS_P1;PMS_P2;Temp;Humidity;BMP_temperature;BMP_pressure;BME280_temperature;BME280_humidity;BME280_pressure;Samples;Min_cycle;Max_cycle;Signal;HPM_P1;HPM_P2
2024/01/23 00:00:09;;;;;;;5.88;2.83;;;;;;;;;;5040134;28;20086;-61
2024/01/23 00:02:35;;;;;;;15.75;3.90;;;;;;;;;;5054753;28;20413;-64
2024/01/23 00:05:02;;;;;;;10.35;3.75;;;;;;;;;;5050122;28;20032;-61
2024/01/23 00:07:28;;;;;;;16.63;4.60;;;;;;;;;;5053469;28;20063;-63
2024/01/23 00:09:54;;;;;;;5.57;2.22;;;;;;;;;;5053159;28;20031;-61
2024/01/23 00:12:20;;;;;;;6.65;2.80;;;;;;;;;;5049607;28;20067;-62
2024/01/23 00:14:46;;;;;;;6.30;2.55;;;;;;;;;;5058524;28;20464;-62
2024/01/23 00:17:13;;;;;;;10.07;3.42;;;;;;;;;;5054056;28;20037;-62
2024/01/23 00:19:39;;;;;;;8.50;2.50;;;;;;;;;;5038347;28;20085;-62
2024/01/23 00:22:05;;;;;;;11.95;2.85;;;;;;;;;;5050194;28;20029;-63
2024/01/23 00:24:31;;;;;;;10.48;2.95;;;;;;;;;;5034352;28;20515;-62
2024/01/23 00:26:57;;;;;;;12.50;3.08;;;;;;;;;;5054621;28;20032;-63
2024/01/23 00:29:24;;;;;;;9.90;2.22;;;;;;;;;;5048948;28;20040;-63
2024/01/23 00:31:50;;;;;;;17.27;3.40;;;;;;;;;;5057181;28;20895;-63
2024/01/23 00:34:16;;;;;;;17.25;3.50;;;;;;;;;;5053749;28;20040;-62
2024/01/23 00:36:42;;;;;;;8.23;3.20;;;;;;;;;;5053790;28;20080;-62
2024/01/23 00:39:08;;;;;;;18.08;3.83;;;;;;;;;;5052879;28;20060;-64
2024/01/23 00:41:35;;;;;;;9.73;3.08;;;;;;;;;;5056650;28;20100;-62
2024/01/23 00:44:01;;;;;;;11.48;2.92;;;;;;;;;;5053228;28;20127;-62
2024/01/23 00:46:27;;;;;;;14.07;3.50;;;;;;;;;;5052800;28;20054;-63
2024/01/23 00:48:53;;;;;;;13.30;2.95;;;;;;;;;;5049392;28;20535;-63
2024/01/23 00:51:20;;;;;;;10.63;3.08;;;;;;;;;;5045882;28;20498;-62
2024/01/23 00:53:46;;;;;;;15.82;3.40;;;;;;;;;;5048891;28;20091;-62
2024/01/23 00:56:12;;;;;;;9.43;3.22;;;;;;;;;;5054043;28;20043;-63
2024/01/23 00:58:38;;;;;;;11.65;3.35;;;;;;;;;;5049554;28;20050;-62
2024/01/23 01:01:04;;;;;;;5.18;1.88;;;;;;;;;;5044154;28;20492;-63
2024/01/23 01:03:31;;;;;;;11.13;2.83;;;;;;;;;;5055887;28;20027;-63
2024/01/23 01:05:57;;;;;;;9.43;3.28;;;;;;;;;;5040192;28;20169;-62
2024/01/23 01:08:23;;;;;;;4.65;2.65;;;;;;;;;;5052816;28;20036;-62
2024/01/23 01:10:50;;;;;;;7.25;3.10;;;;;;;;;;5040817;28;20033;-62
2024/01/23 01:13:16;;;;;;;10.35;2.80;;;;;;;;;;5054901;28;20025;-62
2024/01/23 01:15:42;;;;;;;11.75;2.97;;;;;;;;;;5020707;28;20028;-63
2024/01/23 01:18:08;;;;;;;4.35;2.72;;;;;;;;;;5051462;28;20040;-62
2024/01/23 01:20:35;;;;;;;6.50;3.15;;;;;;;;;;5057980;28;20035;-61
2024/01/23 01:23:01;;;;;;;7.80;2.40;;;;;;;;;;5054647;28;20489;-61
2024/01/23 01:25:27;;;;;;;8.27;2.95;;;;;;;;;;5038154;28;20530;-62
2024/01/23 01:27:54;;;;;;;11.52;3.03;;;;;;;;;;5054986;28;20543;-62
2024/01/23 01:30:26;;;;;;;22.92;3.95;;;;;;;;;;5051755;28;20456;-63
2024/01/23 01:32:52;;;;;;;8.93;2.63;;;;;;;;;;5050740;28;20225;-62
2024/01/23 01:35:19;;;;;;;6.13;3.78;;;;;;;;;;5049134;28;20031;-62
2024/01/23 01:37:45;;;;;;;11.15;2.95;;;;;;;;;;5049424;28;20392;-62
2024/01/23 01:40:13;;;;;;;17.17;3.30;;;;;;;;;;5050722;28;20505;-64
2024/01/23 01:42:41;;;;;;;14.43;4.10;;;;;;;;;;5022339;28;20028;-62
2024/01/23 01:45:08;;;;;;;7.28;2.50;;;;;;;;;;5037132;28;20032;-65
2024/01/23 01:47:34;;;;;;;13.13;3.25;;;;;;;;;;5054531;28;20036;-62
2024/01/23 01:50:00;;;;;;;3.28;2.55;;;;;;;;;;5051441;28;20059;-63
2024/01/23 01:52:27;;;;;;;8.48;1.95;;;;;;;;;;5050391;28;20095;-62
2024/01/23 01:54:55;;;;;;;7.03;3.25;;;;;;;;;;5055110;28;20413;-62
2024/01/23 01:57:22;;;;;;;11.95;3.22;;;;;;;;;;5045770;28;20024;-62
2024/01/23 01:59:48;;;;;;;12.05;3.53;;;;;;;;;;5048065;28;20571;-62
2024/01/23 02:02:15;;;;;;;8.10;3.15;;;;;;;;;;5049728;28;20090;-62
2024/01/23 02:04:41;;;;;;;12.85;3.05;;;;;;;;;;5051894;28;20037;-64
2024/01/23 02:07:07;;;;;;;3.92;2.25;;;;;;;;;;5057245;28;20095;-63
2024/01/23 02:09:34;;;;;;;9.50;3.60;;;;;;;;;;5050709;28;20028;-62
2024/01/23 02:12:01;;;;;;;8.90;2.75;;;;;;;;;;5047306;28;20082;-61
2024/01/23 02:14:27;;;;;;;8.48;2.63;;;;;;;;;;5038568;28;20044;-62
2024/01/23 02:16:53;;;;;;;9.70;2.45;;;;;;;;;;5053451;28;20030;-62
2024/01/23 02:19:20;;;;;;;17.98;3.13;;;;;;;;;;5054626;28;20931;-62
2024/01/23 02:21:46;;;;;;;7.18;2.88;;;;;;;;;;5054756;28;20040;-62
2024/01/23 02:24:12;;;;;;;6.28;2.35;;;;;;;;;;5051216;28;20048;-62
2024/01/23 02:26:38;;;;;;;7.13;2.25;;;;;;;;;;5049216;28;20029;-62
2024/01/23 02:29:04;;;;;;;12.45;3.08;;;;;;;;;;5056081;28;20483;-62
2024/01/23 02:31:30;;;;;;;8.10;2.58;;;;;;;;;;5048980;28;20083;-62
2024/01/23 02:33:56;;;;;;;3.83;2.47;;;;;;;;;;5052347;28;20035;-62
2024/01/23 02:36:22;;;;;;;9.68;2.17;;;;;;;;;;5048730;28;20108;-62
2024/01/23 02:38:49;;;;;;;9.18;2.83;;;;;;;;;;5044274;28;20108;-66
2024/01/23 02:41:15;;;;;;;11.07;2.42;;;;;;;;;;5051586;28;20032;-61
2024/01/23 02:43:41;;;;;;;5.90;2.75;;;;;;;;;;5053513;28;20037;-62
2024/01/23 02:46:07;;;;;;;8.18;2.92;;;;;;;;;;5053378;28;20103;-62
2024/01/23 02:48:33;;;;;;;5.72;2.03;;;;;;;;;;5050982;28;20028;-62
2024/01/23 02:50:59;;;;;;;14.55;2.55;;;;;;;;;;5033761;28;20035;-62
2024/01/23 02:53:25;;;;;;;12.90;3.08;;;;;;;;;;5057562;28;20029;-62
2024/01/23 02:55:52;;;;;;;5.85;2.47;;;;;;;;;;5051971;28;20476;-62
2024/01/23 02:58:20;;;;;;;3.38;2.58;;;;;;;;;;5051233;28;20649;-62
2024/01/23 03:00:46;;;;;;;11.02;2.35;;;;;;;;;;5068421;28;20032;-62
2024/01/23 03:03:12;;;;;;;4.60;2.30;;;;;;;;;;5072157;28;20528;-62
2024/01/23 03:05:38;;;;;;;9.05;2.22;;;;;;;;;;5072789;28;20135;-63
2024/01/23 03:08:05;;;;;;;8.05;2.42;;;;;;;;;;5067757;28;20899;-62
2024/01/23 03:10:31;;;;;;;12.93;2.92;;;;;;;;;;5075092;28;20024;-62
2024/01/23 03:12:57;;;;;;;4.78;2.72;;;;;;;;;;5076856;28;20056;-65
2024/01/23 03:15:24;;;;;;;7.25;3.05;;;;;;;;;;5073384;28;20080;-65
2024/01/23 03:17:50;;;;;;;15.80;2.72;;;;;;;;;;5070978;28;20157;-65
2024/01/23 03:20:16;;;;;;;6.15;2.20;;;;;;;;;;5074447;28;20089;-65
2024/01/23 03:22:44;;;;;;;16.30;2.33;;;;;;;;;;5071632;28;20032;-65
2024/01/23 03:25:10;;;;;;;7.65;2.35;;;;;;;;;;5073146;28;20031;-65
2024/01/23 03:27:36;;;;;;;11.02;3.13;;;;;;;;;;5076793;28;20036;-65
2024/01/23 03:30:02;;;;;;;11.85;2.30;;;;;;;;;;5079841;28;20558;-65
2024/01/23 03:32:28;;;;;;;5.47;2.67;;;;;;;;;;5073429;28;20089;-65
2024/01/23 03:34:54;;;;;;;3.85;2.10;;;;;;;;;;5079179;28;20032;-65
2024/01/23 03:37:21;;;;;;;5.95;2.15;;;;;;;;;;5070940;28;20425;-65
2024/01/23 03:39:47;;;;;;;15.10;3.97;;;;;;;;;;5076649;28;20035;-65
2024/01/23 03:42:13;;;;;;;8.07;1.77;;;;;;;;;;5072247;28;20024;-65
2024/01/23 03:44:39;;;;;;;15.00;2.70;;;;;;;;;;5075880;28;20291;-65
2024/01/23 03:47:06;;;;;;;3.58;2.00;;;;;;;;;;5075094;28;20089;-65
2024/01/23 03:49:32;;;;;;;10.15;3.20;;;;;;;;;;5071463;28;20725;-65
2024/01/23 03:51:59;;;;;;;2.72;1.67;;;;;;;;;;5075638;28;20075;-65
2024/01/23 03:54:25;;;;;;;8.20;2.65;;;;;;;;;;5077035;28;20059;-65
2024/01/23 03:56:51;;;;;;;3.83;1.95;;;;;;;;;;5072024;28;20576;-65
2024/01/23 03:59:17;;;;;;;7.40;3.00;;;;;;;;;;5068762;28;20116;-65
2024/01/23 04:01:44;;;;;;;15.85;2.88;;;;;;;;;;5069892;28;20496;-65
2024/01/23 04:04:10;;;;;;;6.38;2.50;;;;;;;;;;5077684;28;20555;-65
2024/01/23 04:06:36;;;;;;;7.22;1.95;;;;;;;;;;5072324;28;20028;-65
2024/01/23 04:09:03;;;;;;;7.53;2.53;;;;;;;;;;5070992;28;20031;-64
2024/01/23 04:11:30;;;;;;;7.25;2.75;;;;;;;;;;5068952;28;20036;-65
2024/01/23 04:13:56;;;;;;;11.60;3.13;;;;;;;;;;5074063;28;20080;-65
2024/01/23 04:16:22;;;;;;;7.05;1.92;;;;;;;;;;5069877;28;20472;-64
2024/01/23 04:18:48;;;;;;;7.85;2.40;;;;;;;;;;5075537;28;20028;-65
2024/01/23 04:21:17;;;;;;;3.30;2.33;;;;;;;;;;5079680;28;20039;-65
2024/01/23 04:23:43;;;;;;;9.95;2.65;;;;;;;;;;5076051;28;20052;-64
2024/01/23 04:26:10;;;;;;;7.63;2.30;;;;;;;;;;5075608;28;20028;-65
2024/01/23 04:28:36;;;;;;;13.73;3.38;;;;;;;;;;5075262;28;20024;-65
2024/01/23 04:31:03;;;;;;;5.88;2.20;;;;;;;;;;5071267;28;20024;-65
2024/01/23 04:33:29;;;;;;;6.30;2.30;;;;;;;;;;5074313;28;20171;-65
2024/01/23 04:35:55;;;;;;;5.47;3.03;;;;;;;;;;5071517;28;20032;-64
2024/01/23 04:38:22;;;;;;;9.25;2.53;;;;;;;;;;5071558;28;20056;-66
2024/01/23 04:40:48;;;;;;;7.95;3.08;;;;;;;;;;5082013;28;20586;-65
2024/01/23 04:43:14;;;;;;;22.90;3.00;;;;;;;;;;5071913;28;20070;-65
2024/01/23 04:45:40;;;;;;;9.27;2.70;;;;;;;;;;5073576;28;20030;-65
2024/01/23 04:48:06;;;;;;;23.00;2.70;;;;;;;;;;5079583;28;20024;-65
2024/01/23 04:50:32;;;;;;;12.70;2.58;;;;;;;;;;5074177;28;20970;-65
2024/01/23 04:52:59;;;;;;;6.88;3.13;;;;;;;;;;5064990;28;20104;-65
2024/01/23 04:55:25;;;;;;;22.27;3.53;;;;;;;;;;5076395;28;20568;-65
2024/01/23 04:57:51;;;;;;;9.27;2.20;;;;;;;;;;5067038;28;20106;-64
2024/01/23 05:00:17;;;;;;;3.78;2.08;;;;;;;;;;5047060;28;20094;-64
2024/01/23 05:02:44;;;;;;;11.18;2.22;;;;;;;;;;5062760;28;20024;-64
2024/01/23 05:05:10;;;;;;;3.65;2.13;;;;;;;;;;5049312;28;20112;-65
2024/01/23 05:07:36;;;;;;;6.45;2.50;;;;;;;;;;5059631;28;20060;-65
2024/01/23 05:10:04;;;;;;;13.77;2.28;;;;;;;;;;5036839;28;20163;-64
2024/01/23 05:12:30;;;;;;;7.93;2.58;;;;;;;;;;5039909;28;20055;-64
2024/01/23 05:14:56;;;;;;;2.80;2.42;;;;;;;;;;5054869;28;20284;-64
2024/01/23 05:17:22;;;;;;;5.07;1.75;;;;;;;;;;5048699;28;20037;-64
2024/01/23 05:19:48;;;;;;;6.35;2.38;;;;;;;;;;5038239;28;20028;-65
2024/01/23 05:22:15;;;;;;;8.73;1.80;;;;;;;;;;5052255;28;20816;-64
2024/01/23 05:24:41;;;;;;;8.18;1.88;;;;;;;;;;5030805;28;20568;-64
2024/01/23 05:27:07;;;;;;;4.78;1.55;;;;;;;;;;5027383;28;20029;-64
2024/01/23 05:29:33;;;;;;;3.38;2.28;;;;;;;;;;5053163;28;20041;-64
2024/01/23 05:31:59;;;;;;;7.65;2.22;;;;;;;;;;5048278;28;20028;-66
2024/01/23 05:34:25;;;;;;;9.32;1.77;;;;;;;;;;5054957;28;20021;-65
2024/01/23 05:36:52;;;;;;;6.22;1.60;;;;;;;;;;5058629;28;20591;-66
2024/01/23 05:39:19;;;;;;;1.95;1.40;;;;;;;;;;5048212;28;20611;-65
2024/01/23 05:41:45;;;;;;;4.07;1.83;;;;;;;;;;5050316;28;20021;-65
2024/01/23 05:44:11;;;;;;;3.13;1.63;;;;;;;;;;5055943;28;20032;-65
2024/01/23 05:46:37;;;;;;;5.78;2.03;;;;;;;;;;5051854;28;20028;-65
2024/01/23 05:49:03;;;;;;;1.83;1.65;;;;;;;;;;5046673;28;20036;-65
2024/01/23 05:51:30;;;;;;;2.65;1.67;;;;;;;;;;5047045;28;20029;-65
2024/01/23 05:53:56;;;;;;;2.70;1.38;;;;;;;;;;5035181;28;20025;-65
2024/01/23 05:56:22;;;;;;;1.65;1.55;;;;;;;;;;5049069;28;20036;-65
2024/01/23 05:58:48;;;;;;;3.35;1.48;;;;;;;;;;5056719;28;20056;-66
2024/01/23 06:01:14;;;;;;;5.50;1.73;;;;;;;;;;5053222;28;20029;-66
2024/01/23 06:03:44;;;;;;;11.63;2.28;;;;;;;;;;5043931;28;20037;-65
2024/01/23 06:06:10;;;;;;;3.67;1.75;;;;;;;;;;5047095;28;20056;-66
2024/01/23 06:08:36;;;;;;;1.35;1.27;;;;;;;;;;5036699;28;20025;-66
2024/01/23 06:11:03;;;;;;;3.72;1.67;;;;;;;;;;5044240;28;20029;-66
2024/01/23 06:13:29;;;;;;;3.13;1.88;;;;;;;;;;5045690;28;20483;-66
2024/01/23 06:15:55;;;;;;;1.60;1.50;;;;;;;;;;5046580;28;20033;-67
2024/01/23 06:18:22;;;;;;;3.20;1.73;;;;;;;;;;5035385;28;20157;-66
2024/01/23 06:20:48;;;;;;;2.67;1.58;;;;;;;;;;5052817;28;20111;-66
2024/01/23 06:23:17;;;;;;;5.57;1.60;;;;;;;;;;5048868;28;20028;-67
2024/01/23 06:25:43;;;;;;;2.53;1.45;;;;;;;;;;5053407;28;20465;-66
2024/01/23 06:28:09;;;;;;;5.47;1.35;;;;;;;;;;5056599;28;20031;-65
2024/01/23 06:30:36;;;;;;;5.60;2.28;;;;;;;;;;5063966;28;20028;-66
2024/01/23 06:33:04;;;;;;;3.25;1.48;;;;;;;;;;5049334;28;20079;-66
2024/01/23 06:35:30;;;;;;;1.77;1.67;;;;;;;;;;5055249;28;20029;-67
2024/01/23 06:37:56;;;;;;;1.85;1.35;;;;;;;;;;5044858;28;20547;-66
2024/01/23 06:40:23;;;;;;;1.48;1.38;;;;;;;;;;5053367;28;20321;-66
2024/01/23 06:42:49;;;;;;;1.35;1.30;;;;;;;;;;5057145;28;20073;-66
2024/01/23 06:45:15;;;;;;;3.63;1.45;;;;;;;;;;5053686;28;20399;-66
2024/01/23 06:47:42;;;;;;;1.95;1.13;;;;;;;;;;5037593;28;20252;-66
2024/01/23 06:50:08;;;;;;;2.28;1.30;;;;;;;;;;5054953;28;20028;-66
2024/01/23 06:52:34;;;;;;;1.20;1.20;;;;;;;;;;5058612;28;20056;-65
2024/01/23 06:55:01;;;;;;;1.25;1.25;;;;;;;;;;5039512;28;20446;-65
2024/01/23 06:57:28;;;;;;;1.90;1.00;;;;;;;;;;5049812;28;20384;-66
2024/01/23 06:59:54;;;;;;;2.63;1.35;;;;;;;;;;5052727;28;20473;-65
2024/01/23 07:02:21;;;;;;;1.40;1.17;;;;;;;;;;5053702;28;20100;-67
2024/01/23 07:04:47;;;;;;;1.40;1.30;;;;;;;;;;5059863;28;20036;-67
2024/01/23 07:07:13;;;;;;;1.60;1.13;;;;;;;;;;5035407;28;20889;-66
2024/01/23 07:09:40;;;;;;;3.08;1.50;;;;;;;;;;5057445;28;20542;-66
2024/01/23 07:12:06;;;;;;;1.08;1.08;;;;;;;;;;5050360;28;20110;-66
2024/01/23 07:14:32;;;;;;;1.40;1.40;;;;;;;;;;5054785;28;20029;-66
2024/01/23 07:16:58;;;;;;;1.20;1.20;;;;;;;;;;5056372;28;20562;-67
2024/01/23 07:19:24;;;;;;;1.38;1.13;;;;;;;;;;5056023;28;20074;-66
2024/01/23 07:21:50;;;;;;;0.90;0.90;;;;;;;;;;5055300;28;20484;-66
2024/01/23 07:24:17;;;;;;;1.27;1.17;;;;;;;;;;5057215;28;20050;-66
2024/01/23 07:26:43;;;;;;;1.00;1.00;;;;;;;;;;5049564;28;20545;-66
2024/01/23 07:29:09;;;;;;;0.90;0.90;;;;;;;;;;5054203;28;20488;-66
2024/01/23 07:31:35;;;;;;;1.05;1.05;;;;;;;;;;5051966;28;20031;-66
2024/01/23 07:34:02;;;;;;;1.08;0.95;;;;;;;;;;5054070;28;20063;-67
2024/01/23 07:36:29;;;;;;;0.90;0.90;;;;;;;;;;5046957;28;20021;-66
2024/01/23 07:38:55;;;;;;;0.98;0.98;;;;;;;;;;5037155;28;20033;-66
2024/01/23 07:41:21;;;;;;;1.20;1.20;;;;;;;;;;5035453;28;20027;-66
2024/01/23 07:43:48;;;;;;;0.90;0.90;;;;;;;;;;5051313;28;20472;-65
2024/01/23 07:46:15;;;;;;;1.00;1.00;;;;;;;;;;5036976;28;20112;-66
2024/01/23 07:48:41;;;;;;;0.90;0.90;;;;;;;;;;5050377;28;20028;-65
2024/01/23 07:51:07;;;;;;;2.08;1.10;;;;;;;;;;5057509;28;20212;-66
2024/01/23 07:53:34;;;;;;;0.90;0.90;;;;;;;;;;5055214;28;20102;-66
2024/01/23 07:56:00;;;;;;;2.17;1.25;;;;;;;;;;5055207;28;20488;-65
2024/01/23 07:58:27;;;;;;;0.90;0.90;;;;;;;;;;5052566;28;20135;-65
2024/01/23 08:00:53;;;;;;;1.02;1.02;;;;;;;;;;5060001;28;20029;-66
2024/01/23 08:03:19;;;;;;;0.85;0.85;;;;;;;;;;5055581;28;20489;-66
2024/01/23 08:05:45;;;;;;;1.02;1.02;;;;;;;;;;5053821;28;20029;-65
2024/01/23 08:08:11;;;;;;;1.35;1.10;;;;;;;;;;5052983;28;20017;-66
2024/01/23 08:10:38;;;;;;;0.90;0.90;;;;;;;;;;5034316;28;20033;-66
2024/01/23 08:13:04;;;;;;;1.15;0.98;;;;;;;;;;5063218;28;20037;-66
2024/01/23 08:15:30;;;;;;;1.10;1.10;;;;;;;;;;5053575;28;20037;-68
2024/01/23 08:17:56;;;;;;;0.70;0.70;;;;;;;;;;5057642;28;20462;-66
2024/01/23 08:20:23;;;;;;;0.90;0.90;;;;;;;;;;5036527;28;20516;-67
2024/01/23 08:22:49;;;;;;;0.80;0.80;;;;;;;;;;5053711;28;20322;-65
2024/01/23 08:25:15;;;;;;;0.90;0.90;;;;;;;;;;5051706;28;20079;-66
2024/01/23 08:27:42;;;;;;;1.00;1.00;;;;;;;;;;5050114;28;20430;-66
2024/01/23 08:30:09;;;;;;;1.10;1.10;;;;;;;;;;5056217;28;20042;-65
2024/01/23 08:32:35;;;;;;;1.10;1.10;;;;;;;;;;5055298;28;20033;-65
2024/01/23 08:35:02;;;;;;;0.90;0.90;;;;;;;;;;5057588;28;20032;-65
2024/01/23 08:37:28;;;;;;;4.90;1.10;;;;;;;;;;5056136;28;20040;-65
2024/01/23 08:39:54;;;;;;;1.00;1.00;;;;;;;;;;5054330;28;20036;-65
2024/01/23 08:42:20;;;;;;;1.05;1.05;;;;;;;;;;5050124;28;20112;-65
2024/01/23 08:44:49;;;;;;;1.00;0.98;;;;;;;;;;5047710;28;20543;-66
2024/01/23 08:47:15;;;;;;;1.27;1.10;;;;;;;;;;5053008;28;20088;-65
2024/01/23 08:49:41;;;;;;;1.00;1.00;;;;;;;;;;5051456;28;20036;-64
2024/01/23 08:52:07;;;;;;;1.08;1.08;;;;;;;;;;5048680;28;20100;-69
2024/01/23 08:54:36;;;;;;;1.10;1.10;;;;;;;;;;5054944;28;20499;-65
2024/01/23 08:57:02;;;;;;;2.05;0.95;;;;;;;;;;5040686;28;20032;-65
2024/01/23 08:59:28;;;;;;;1.10;1.10;;;;;;;;;;5046467;28;20497;-66
2024/01/23 09:01:58;;;;;;;1.10;1.10;;;;;;;;;;5039144;28;20041;-65
2024/01/23 09:04:24;;;;;;;1.10;1.10;;;;;;;;;;5053601;28;20062;-66
2024/01/23 09:06:50;;;;;;;1.90;1.10;;;;;;;;;;5045789;28;20032;-65
2024/01/23 09:09:16;;;;;;;1.25;1.15;;;;;;;;;;5036351;28;20116;-66
2024/01/23 09:11:42;;;;;;;1.38;1.20;;;;;;;;;;5037312;28;20063;-65
2024/01/23 09:14:08;;;;;;;1.35;1.30;;;;;;;;;;5035478;28;20029;-66
2024/01/23 09:16:34;;;;;;;1.00;1.00;;;;;;;;;;5049447;28;20439;-66
2024/01/23 09:19:01;;;;;;;1.80;1.67;;;;;;;;;;5049148;28;20035;-65
2024/01/23 09:21:27;;;;;;;1.67;1.10;;;;;;;;;;5058680;28;20033;-66
2024/01/23 09:23:53;;;;;;;1.20;1.20;;;;;;;;;;5048127;28;20025;-65
2024/01/23 09:26:19;;;;;;;1.20;1.20;;;;;;;;;;5055183;28;20842;-65
2024/01/23 09:28:46;;;;;;;1.15;1.15;;;;;;;;;;5051124;28;20032;-65
2024/01/23 09:31:12;;;;;;;1.10;1.10;;;;;;;;;;5048775;28;20036;-65
2024/01/23 09:33:38;;;;;;;1.40;1.30;;;;;;;;;;5049139;28;20025;-66
2024/01/23 09:36:04;;;;;;;1.23;1.23;;;;;;;;;;5050351;28;20094;-66
2024/01/23 09:38:31;;;;;;;1.52;1.42;;;;;;;;;;5050676;28;20332;-66
2024/01/23 09:40:57;;;;;;;1.60;1.50;;;;;;;;;;5056313;28;20023;-65
2024/01/23 09:43:24;;;;;;;2.33;1.35;;;;;;;;;;5037424;28;20040;-65
2024/01/23 09:45:51;;;;;;;1.55;1.30;;;;;;;;;;5054269;28;20032;-66
2024/01/23 09:48:19;;;;;;;1.30;1.30;;;;;;;;;;5050804;28;20024;-66
2024/01/23 09:50:46;;;;;;;2.53;1.35;;;;;;;;;;5050898;28;20105;-66
2024/01/23 09:53:13;;;;;;;1.42;1.30;;;;;;;;;;5046337;28;20021;-67
2024/01/23 09:55:39;;;;;;;1.40;1.30;;;;;;;;;;5049911;28;20648;-65
2024/01/23 09:58:07;;;;;;;1.20;1.20;;;;;;;;;;5053597;28;20048;-66
2024/01/23 10:00:34;;;;;;;2.92;2.00;;;;;;;;;;5055803;28;20028;-65
2024/01/23 10:03:00;;;;;;;1.35;1.30;;;;;;;;;;5051918;28;20516;-66
2024/01/23 10:05:27;;;;;;;2.22;1.20;;;;;;;;;;5057378;28;20022;-66
2024/01/23 10:07:54;;;;;;;1.20;1.20;;;;;;;;;;5053645;28;20535;-66
2024/01/23 10:10:20;;;;;;;2.20;1.27;;;;;;;;;;5057336;28;20024;-66
2024/01/23 10:12:47;;;;;;;2.95;1.58;;;;;;;;;;5051998;28;20071;-66
2024/01/23 10:15:15;;;;;;;1.33;1.20;;;;;;;;;;5052124;28;20025;-66
2024/01/23 10:17:42;;;;;;;1.40;1.35;;;;;;;;;;5053811;28;20025;-68
2024/01/23 10:20:08;;;;;;;1.63;1.52;;;;;;;;;;5051967;28;20037;-66
2024/01/23 10:22:35;;;;;;;1.27;1.27;;;;;;;;;;5056493;28;20039;-66
2024/01/23 10:25:02;;;;;;;1.00;1.00;;;;;;;;;;5040503;28;20887;-68
2024/01/23 10:27:32;;;;;;;1.25;1.25;;;;;;;;;;5056269;28;20025;-67
2024/01/23 10:29:59;;;;;;;1.10;1.10;;;;;;;;;;5063698;28;20030;-71
2024/01/23 10:32:26;;;;;;;1.95;1.30;;;;;;;;;;5065674;28;20066;-68
2024/01/23 10:34:54;;;;;;;1.10;1.10;;;;;;;;;;5058526;28;20082;-66
2024/01/23 10:37:24;;;;;;;1.25;1.15;;;;;;;;;;5063500;28;20106;-66
2024/01/23 10:39:51;;;;;;;3.28;1.20;;;;;;;;;;5053994;28;20263;-66
2024/01/23 10:42:18;;;;;;;1.13;1.10;;;;;;;;;;5064633;28;20081;-66
2024/01/23 10:44:51;;;;;;;1.40;1.30;;;;;;;;;;5057832;28;20025;-67
2024/01/23 10:47:18;;;;;;;1.20;1.20;;;;;;;;;;5058045;28;20035;-66
2024/01/23 10:49:45;;;;;;;3.20;1.58;;;;;;;;;;5043591;28;20043;-66
2024/01/23 10:52:21;;;;;;;1.00;1.00;;;;;;;;;;5058935;28;20033;-65
2024/01/23 10:54:48;;;;;;;1.20;1.20;;;;;;;;;;5055667;28;20086;-65
2024/01/23 10:57:24;;;;;;;1.30;1.20;;;;;;;;;;5055465;28;20071;-65
2024/01/23 10:59:50;;;;;;;2.05;1.27;;;;;;;;;;5054190;28;20514;-66
2024/01/23 11:02:29;;;;;;;1.83;1.42;;;;;;;;;;5057270;28;20029;-65
2024/01/23 11:04:55;;;;;;;1.55;1.30;;;;;;;;;;5038381;28;20451;-65
2024/01/23 11:07:39;;;;;;;2.33;1.30;;;;;;;;;;5053092;28;20478;-66
2024/01/23 11:10:27;;;;;;;1.25;1.25;;;;;;;;;;5058323;28;20033;-66
2024/01/23 11:13:08;;;;;;;6.15;3.05;;;;;;;;;;5059948;28;20020;-66
2024/01/23 11:15:34;;;;;;;1.27;1.27;;;;;;;;;;5056691;28;20021;-65
2024/01/23 11:18:19;;;;;;;1.70;1.60;;;;;;;;;;5056528;28;20132;-66
2024/01/23 11:21:01;;;;;;;1.20;1.10;;;;;;;;;;5039400;28;20121;-66
2024/01/23 11:23:27;;;;;;;1.35;1.25;;;;;;;;;;5051652;28;20040;-65
2024/01/23 11:26:01;;;;;;;1.23;1.20;;;;;;;;;;5055066;28;20036;-65
2024/01/23 11:28:28;;;;;;;1.30;1.20;;;;;;;;;;5054674;28;20071;-66
2024/01/23 11:31:13;;;;;;;1.20;1.20;;;;;;;;;;5055434;28;20029;-66
2024/01/23 11:33:39;;;;;;;1.00;1.00;;;;;;;;;;5039865;28;20127;-65
2024/01/23 11:36:10;;;;;;;1.50;1.23;;;;;;;;;;5054703;28;20024;-66
2024/01/23 11:38:42;;;;;;;2.00;1.55;;;;;;;;;;5048368;28;20035;-64
2024/01/23 11:41:22;;;;;;;2.85;1.10;;;;;;;;;;5054549;28;20041;-65
2024/01/23 11:44:03;;;;;;;1.50;1.40;;;;;;;;;;5051343;28;20016;-66
2024/01/23 11:46:30;;;;;;;1.45;1.35;;;;;;;;;;5058497;28;20041;-65
2024/01/23 11:48:56;;;;;;;1.50;1.40;;;;;;;;;;5056313;28;20412;-65
2024/01/23 11:51:24;;;;;;;2.25;1.20;;;;;;;;;;5031614;28;20039;-65
2024/01/23 11:53:50;;;;;;;1.13;1.13;;;;;;;;;;5053408;28;20528;-65
2024/01/23 11:56:16;;;;;;;2.45;1.45;;;;;;;;;;5047832;28;20064;-65
2024/01/23 11:58:43;;;;;;;1.20;1.20;;;;;;;;;;5053233;28;20056;-65
2024/01/23 12:01:10;;;;;;;2.47;1.48;;;;;;;;;;5049725;28;20420;-65
2024/01/23 12:03:36;;;;;;;2.65;1.70;;;;;;;;;;5050372;28;20483;-65
2024/01/23 12:06:02;;;;;;;1.10;1.10;;;;;;;;;;5051855;28;20028;-66
2024/01/23 12:08:29;;;;;;;1.70;1.60;;;;;;;;;;5052480;28;20098;-65
2024/01/23 12:10:58;;;;;;;1.70;1.60;;;;;;;;;;5054633;28;20032;-64
2024/01/23 12:13:24;;;;;;;2.03;1.38;;;;;;;;;;5059714;28;20409;-65
2024/01/23 12:15:50;;;;;;;1.50;1.27;;;;;;;;;;5053274;28;20031;-66
2024/01/23 12:18:18;;;;;;;1.10;1.10;;;;;;;;;;5055160;28;20052;-65
2024/01/23 12:20:50;;;;;;;1.75;1.33;;;;;;;;;;5052233;28;20035;-65
2024/01/23 12:23:17;;;;;;;1.25;1.25;;;;;;;;;;5037561;28;20024;-66
2024/01/23 12:25:43;;;;;;;1.60;1.38;;;;;;;;;;5050657;28;20074;-65
2024/01/23 12:28:10;;;;;;;1.63;1.52;;;;;;;;;;5049753;28;20492;-65
2024/01/23 12:30:36;;;;;;;1.33;1.33;;;;;;;;;;5049707;28;20165;-65
2024/01/23 12:33:06;;;;;;;1.20;1.20;;;;;;;;;;5055008;28;20366;-65
2024/01/23 12:35:36;;;;;;;2.38;1.20;;;;;;;;;;5052714;28;20029;-65
2024/01/23 12:38:03;;;;;;;1.50;1.40;;;;;;;;;;5036462;28;20017;-65
2024/01/23 12:40:29;;;;;;;3.10;1.60;;;;;;;;;;5047384;28;20040;-65
2024/01/23 12:42:55;;;;;;;1.27;1.27;;;;;;;;;;5057190;28;20030;-65
2024/01/23 12:45:22;;;;;;;1.50;1.40;;;;;;;;;;5053385;28;20025;-65
2024/01/23 12:47:49;;;;;;;1.83;1.65;;;;;;;;;;5053817;28;20122;-67
2024/01/23 12:50:25;;;;;;;2.75;1.70;;;;;;;;;;5049093;28;20041;-66
2024/01/23 12:52:52;;;;;;;1.88;1.50;;;;;;;;;;5053918;28;20678;-66
2024/01/23 12:55:18;;;;;;;1.30;1.27;;;;;;;;;;5032030;28;20044;-65
2024/01/23 12:57:45;;;;;;;4.40;2.80;;;;;;;;;;5046923;28;20495;-65
2024/01/23 13:00:15;;;;;;;4.18;3.17;;;;;;;;;;5050943;28;20068;-65
2024/01/23 13:02:41;;;;;;;3.38;2.58;;;;;;;;;;5045709;28;20268;-66
2024/01/23 13:05:07;;;;;;;2.33;1.90;;;;;;;;;;5046999;28;20085;-65
2024/01/23 13:07:34;;;;;;;3.70;1.70;;;;;;;;;;5051872;28;20021;-65
2024/01/23 13:10:03;;;;;;;5.13;2.65;;;;;;;;;;5044992;28;20639;-66
2024/01/23 13:12:30;;;;;;;1.92;1.70;;;;;;;;;;5041524;28;20760;-66
2024/01/23 13:14:56;;;;;;;1.92;1.83;;;;;;;;;;5049198;28;20033;-65
2024/01/23 13:17:22;;;;;;;1.55;1.45;;;;;;;;;;5050931;28;20032;-65
2024/01/23 13:19:48;;;;;;;2.60;1.50;;;;;;;;;;5052252;28;20040;-65
2024/01/23 13:22:14;;;;;;;2.60;1.40;;;;;;;;;;5055987;28;20032;-66
2024/01/23 13:24:40;;;;;;;4.15;2.08;;;;;;;;;;5053431;28;20040;-65
2024/01/23 13:27:07;;;;;;;4.00;1.80;;;;;;;;;;5056982;28;20036;-65
2024/01/23 13:29:34;;;;;;;4.82;1.73;;;;;;;;;;5045967;28;20025;-65
2024/01/23 13:32:00;;;;;;;6.35;1.95;;;;;;;;;;5048734;28;20032;-65
2024/01/23 13:34:27;;;;;;;2.03;1.63;;;;;;;;;;5055954;28;20029;-65
2024/01/23 13:36:53;;;;;;;2.67;1.95;;;;;;;;;;5048373;28;20021;-66
2024/01/23 13:39:19;;;;;;;1.73;1.63;;;;;;;;;;5052342;28;20031;-65
2024/01/23 13:41:46;;;;;;;2.45;1.42;;;;;;;;;;5042969;28;20047;-65
2024/01/23 13:44:13;;;;;;;4.55;1.80;;;;;;;;;;5050446;28;20462;-66
2024/01/23 13:46:40;;;;;;;1.60;1.50;;;;;;;;;;5051300;28;20064;-66
2024/01/23 13:49:08;;;;;;;1.85;1.75;;;;;;;;;;5029269;28;20013;-65
2024/01/23 13:51:34;;;;;;;1.50;1.40;;;;;;;;;;5055070;28;20445;-65
2024/01/23 13:54:00;;;;;;;6.60;1.58;;;;;;;;;;5060487;28;20047;-65
2024/01/23 13:56:26;;;;;;;2.60;1.50;;;;;;;;;;5040380;28;20396;-65
2024/01/23 13:58:53;;;;;;;3.38;1.83;;;;;;;;;;5059130;28;20408;-65
2024/01/23 14:01:19;;;;;;;1.40;1.30;;;;;;;;;;5045053;28;20036;-65
2024/01/23 14:03:45;;;;;;;2.60;2.00;;;;;;;;;;5051509;28;20366;-65
2024/01/23 14:06:12;;;;;;;1.45;1.35;;;;;;;;;;5056772;28;20027;-65
2024/01/23 14:08:42;;;;;;;1.50;1.40;;;;;;;;;;5054891;28;20115;-65
2024/01/23 14:11:13;;;;;;;1.67;1.58;;;;;;;;;;5051641;28;20028;-65
2024/01/23 14:13:39;;;;;;;1.50;1.40;;;;;;;;;;5049455;28;20040;-65
2024/01/23 14:16:06;;;;;;;1.50;1.40;;;;;;;;;;5051580;28;20050;-66
2024/01/23 14:18:32;;;;;;;2.28;1.08;;;;;;;;;;5052147;28;20033;-65
2024/01/23 14:20:58;;;;;;;2.42;1.23;;;;;;;;;;5053994;28;20033;-65
2024/01/23 14:23:24;;;;;;;1.45;1.33;;;;;;;;;;5041456;28;20053;-66
2024/01/23 14:25:50;;;;;;;1.67;1.58;;;;;;;;;;5055923;28;20389;-66
2024/01/23 14:28:17;;;;;;;1.42;1.33;;;;;;;;;;5051145;28;20443;-68
2024/01/23 14:30:44;;;;;;;1.60;1.50;;;;;;;;;;5039841;28;20041;-65
2024/01/23 14:33:12;;;;;;;1.50;1.40;;;;;;;;;;5051265;28;20022;-67
2024/01/23 14:35:38;;;;;;;1.73;1.63;;;;;;;;;;5052302;28;20091;-65
2024/01/23 14:38:04;;;;;;;1.73;1.40;;;;;;;;;;5053423;28;20380;-65